Time;durP1;ratioP1;P1;durP2;ratioP2;P2;SDS_P1;SDS_P2;PMS_P1;PMS_P2;Temp;Humidity;BMP_temperature;BMP_pressure;BME280_temperature;BME280_humidity;BME280_pressure;Samples;Min_cycle;Max_cycle;Signal;HPM_P1;HPM_P2
2022/08/06 00:01:29;;;;;;;2.50;1.65;;;;;;;21.85;46.25;101205.50;4163002;28;20042;-62
2022/08/06 00:03:42;;;;;;;2.42;1.63;;;;;;;21.96;45.78;101208.81;4143972;28;20554;-62
2022/08/06 00:05:55;;;;;;;3.60;1.88;;;;;;;21.89;45.92;101212.50;4162257;28;20174;-63
2022/08/06 00:08:01;;;;;;;5.88;1.92;;;;;;;21.83;46.13;101222.31;4162879;28;20072;-63
2022/08/06 00:10:04;;;;;;;5.30;1.70;;;;;;;21.89;45.98;101223.06;4162377;28;20046;-63
2022/08/06 00:12:19;;;;;;;4.63;1.73;;;;;;;21.80;46.19;101228.56;4161618;28;20038;-62
2022/08/06 00:14:33;;;;;;;3.47;2.00;;;;;;;21.71;46.40;101228.72;4162521;28;20034;-62
2022/08/06 00:16:37;;;;;;;4.35;1.60;;;;;;;21.76;46.42;101230.38;4161992;28;20041;-63
2022/08/06 00:18:41;;;;;;;4.07;1.77;;;;;;;21.79;46.31;101232.13;4161978;28;20037;-63
2022/08/06 00:20:49;;;;;;;;;;;;;;;21.59;46.77;101238.66;4163186;28;20518;-62
2022/08/06 00:22:56;;;;;;;4.10;1.80;;;;;;;21.64;46.67;101233.28;4161436;28;19960;-62
2022/08/06 00:25:15;;;;;;;5.13;1.83;;;;;;;21.65;46.52;101237.66;4162855;28;20040;-62
2022/08/06 00:27:26;;;;;;;4.03;1.50;;;;;;;21.63;46.71;101241.25;4157889;28;20040;-62
2022/08/06 00:29:49;;;;;;;5.90;1.63;;;;;;;21.60;46.86;101240.41;4164400;28;20133;-62
2022/08/06 00:32:15;;;;;;;3.78;2.03;;;;;;;21.57;47.00;101247.53;4164399;28;20565;-62
2022/08/06 00:34:20;;;;;;;4.25;1.67;;;;;;;21.70;46.86;101248.16;4164210;28;20115;-62
2022/08/06 00:36:31;;;;;;;5.10;2.08;;;;;;;21.82;46.57;101245.28;4166531;28;20399;-62
2022/08/06 00:38:36;;;;;;;4.82;1.98;;;;;;;21.70;47.04;101253.44;4162351;28;20053;-62
2022/08/06 00:40:48;;;;;;;5.57;1.80;;;;;;;21.70;47.07;101248.16;4165312;28;20057;-62
2022/08/06 00:43:06;;;;;;;3.70;1.88;;;;;;;21.59;47.31;101245.72;4164731;28;20049;-62
2022/08/06 00:45:16;;;;;;;3.08;1.60;;;;;;;21.56;47.67;101254.59;4164086;28;20111;-62
2022/08/06 00:47:28;;;;;;;5.05;1.60;;;;;;;21.50;47.97;101251.16;4165643;28;20388;-62
2022/08/06 00:49:51;;;;;;;2.58;1.45;;;;;;;21.51;48.03;101251.16;4165676;28;20045;-63
2022/08/06 00:51:53;;;;;;;3.45;1.65;;;;;;;21.71;47.82;101249.91;4164850;28;20049;-62
2022/08/06 00:53:58;;;;;;;4.47;2.00;;;;;;;21.75;47.70;101256.88;4164588;28;20526;-62
2022/08/06 00:56:04;;;;;;;2.97;1.60;;;;;;;21.60;48.05;101260.72;4163676;28;20091;-62
2022/08/06 00:58:12;;;;;;;6.70;1.75;;;;;;;21.57;48.26;101261.63;4197887;28;20094;-62
2022/08/06 01:00:18;;;;;;;7.03;1.90;;;;;;;21.54;48.51;101266.13;4154619;28;20120;-62
2022/08/06 01:02:33;;;;;;;3.85;1.83;;;;;;;21.55;48.10;101265.19;4164331;28;20057;-62
2022/08/06 01:04:36;;;;;;;5.53;2.08;;;;;;;21.52;48.29;101265.25;4163710;28;20069;-63
2022/08/06 01:06:40;;;;;;;6.75;1.92;;;;;;;21.52;48.41;101266.13;4164076;28;20503;-62
2022/08/06 01:08:59;;;;;;;7.63;1.90;;;;;;;21.37;48.73;101261.97;4165503;28;20131;-62
2022/08/06 01:11:03;;;;;;;5.55;1.60;;;;;;;21.29;48.95;101263.88;4164775;28;20042;-62
2022/08/06 01:13:12;;;;;;;3.17;1.35;;;;;;;21.23;49.16;101259.56;4164562;28;20042;-62
2022/08/06 01:15:27;;;;;;;6.25;2.22;;;;;;;21.28;48.32;101257.69;4161900;28;20049;-63
2022/08/06 01:17:58;;;;;;;4.50;2.00;;;;;;;21.21;48.71;101261.34;4196936;28;20579;-62
2022/08/06 01:20:15;;;;;;;5.68;1.95;;;;;;;21.18;48.54;101266.69;4160935;28;20112;-62
2022/08/06 01:22:51;;;;;;;2.95;1.60;;;;;;;21.12;48.66;101268.59;4164315;28;20080;-62
2022/08/06 01:25:18;;;;;;;6.30;1.90;;;;;;;21.18;48.21;101266.69;4163206;28;20045;-62
2022/08/06 01:27:34;;;;;;;3.50;1.60;;;;;;;21.37;47.11;101271.69;4157002;28;20042;-62
2022/08/06 01:29:51;;;;;;;3.05;1.40;;;;;;;21.23;47.62;101267.50;4165011;28;20446;-62
2022/08/06 01:32:03;;;;;;;6.65;1.65;;;;;;;21.27;46.90;101273.59;4162659;28;20049;-63
2022/08/06 01:34:15;;;;;;;5.18;1.65;;;;;;;21.10;47.32;101265.97;4162037;28;20041;-62
2022/08/06 01:36:24;;;;;;;6.18;2.20;;;;;;;21.14;47.43;101269.44;4181092;28;20028;-62
2022/08/06 01:38:35;;;;;;;3.53;1.48;;;;;;;21.09;47.57;101261.56;4162589;28;20061;-63
2022/08/06 01:40:49;;;;;;;;;;;;;;;21.06;47.03;101257.19;4165484;28;20459;-62
2022/08/06 01:42:57;;;;;;;1.98;1.40;;;;;;;21.09;46.86;101257.16;4164701;28;19925;-63
2022/08/06 01:45:02;;;;;;;4.00;1.60;;;;;;;21.04;47.39;101260.75;4163774;28;20165;-63
2022/08/06 01:47:09;;;;;;;4.78;1.95;;;;;;;21.04;46.79;101260.75;4160950;28;20115;-62
2022/08/06 01:49:33;;;;;;;5.10;1.70;;;;;;;21.04;46.59;101266.94;4157867;28;20041;-62
2022/08/06 01:51:59;;;;;;;7.47;2.03;;;;;;;20.85;47.02;101263.72;4163581;28;20045;-62
2022/08/06 01:54:19;;;;;;;4.78;1.85;;;;;;;20.79;47.42;101255.00;4163811;28;20044;-63
2022/08/06 01:56:23;;;;;;;3.10;1.40;;;;;;;20.80;47.34;101256.75;4162940;28;20041;-63
2022/08/06 01:58:50;;;;;;;6.47;1.88;;;;;;;20.74;47.67;101255.09;4161631;28;20037;-62
2022/08/06 02:00:55;;;;;;;7.90;1.90;;;;;;;20.66;47.62;101256.91;4164532;28;20048;-62
2022/08/06 02:03:17;;;;;;;4.15;1.58;;;;;;;20.55;47.93;101260.59;4164117;28;20045;-62
2022/08/06 02:05:25;;;;;;;5.90;2.22;;;;;;;20.65;47.69;101261.34;4161543;28;20103;-62
2022/08/06 02:07:37;;;;;;;3.08;1.60;;;;;;;20.61;47.77;101258.78;4162113;28;20048;-62
2022/08/06 02:10:03;;;;;;;2.83;1.50;;;;;;;20.57;48.07;101264.09;4164826;28;20048;-62
2022/08/06 02:12:14;;;;;;;3.88;1.60;;;;;;;20.62;47.72;101260.50;4163670;28;20569;-62
2022/08/06 02:14:23;;;;;;;5.78;1.75;;;;;;;20.70;47.20;101264.81;4163559;28;20100;-62
2022/08/06 02:16:35;;;;;;;3.38;1.65;;;;;;;20.63;47.25;101270.19;4164716;28;20033;-62
2022/08/06 02:18:46;;;;;;;4.28;1.83;;;;;;;20.58;47.71;101268.47;4164298;28;20041;-62
2022/08/06 02:20:55;;;;;;;5.80;1.80;;;;;;;20.54;47.71;101264.13;4162555;28;20048;-62
2022/08/06 02:23:00;;;;;;;3.60;1.58;;;;;;;20.49;47.76;101265.97;4164041;28;20533;-62
2022/08/06 02:25:08;;;;;;;2.88;1.50;;;;;;;20.45;47.84;101277.47;4162918;28;20041;-62
2022/08/06 02:27:38;;;;;;;4.03;1.70;;;;;;;20.45;47.93;101287.16;4164593;28;20136;-62
2022/08/06 02:29:58;;;;;;;6.60;1.95;;;;;;;20.50;47.56;101293.25;4160349;28;20080;-62
2022/08/06 02:32:11;;;;;;;5.93;1.70;;;;;;;20.47;47.41;101291.53;4162493;28;20459;-61
2022/08/06 02:34:18;;;;;;;3.00;1.60;;;;;;;20.43;47.66;101292.47;4160944;28;20080;-62
2022/08/06 02:36:34;;;;;;;5.93;1.80;;;;;;;20.36;47.81;101296.94;4163199;28;20038;-62
2022/08/06 02:38:54;;;;;;;5.22;1.95;;;;;;;20.31;48.15;101288.22;4162945;28;20076;-62
2022/08/06 02:41:02;;;;;;;4.63;1.90;;;;;;;20.33;47.89;101283.78;4163059;28;20046;-62
2022/08/06 02:43:08;;;;;;;5.40;1.75;;;;;;;20.27;47.91;101288.25;4163459;28;20045;-62
2022/08/06 02:45:18;;;;;;;2.80;1.42;;;;;;;20.27;47.67;101296.19;4161351;28;20116;-62
2022/08/06 02:47:32;;;;;;;4.28;1.75;;;;;;;20.18;47.75;101297.16;4163335;28;20427;-62
2022/08/06 02:50:00;;;;;;;4.00;1.70;;;;;;;20.17;47.67;101298.94;4161680;28;20419;-61
2022/08/06 02:52:09;;;;;;;6.40;1.45;;;;;;;20.00;47.92;101303.56;4162904;28;20494;-62
2022/08/06 02:54:24;;;;;;;3.63;1.40;;;;;;;19.88;48.14;101300.16;4156001;28;20046;-62
2022/08/06 02:56:30;;;;;;;3.50;1.30;;;;;;;19.97;47.91;101298.31;4163734;28;20042;-62
2022/08/06 02:58:38;;;;;;;6.10;1.65;;;;;;;19.90;47.42;101294.84;4163698;28;20103;-62
2022/08/06 03:00:51;;;;;;;3.75;1.50;;;;;;;19.83;48.05;101293.19;4163628;28;20083;-62
2022/08/06 03:02:58;;;;;;;3.72;1.65;;;;;;;19.82;47.84;101292.31;4161547;28;20041;-62
2022/08/06 03:05:05;;;;;;;5.38;1.70;;;;;;;19.74;47.96;101294.13;4162664;28;20042;-62
2022/08/06 03:07:13;;;;;;;4.38;1.70;;;;;;;19.64;47.98;101297.75;4162729;28;20097;-62
2022/08/06 03:09:29;;;;;;;5.28;1.60;;;;;;;19.64;47.69;101310.94;4163255;28;20073;-63
2022/08/06 03:11:36;;;;;;;4.57;1.40;;;;;;;19.67;47.74;101301.25;4162704;28;20044;-62
2022/08/06 03:13:43;;;;;;;4.45;1.88;;;;;;;19.59;48.15;101299.56;4163359;28;20069;-62
2022/08/06 03:15:51;;;;;;;4.05;1.70;;;;;;;19.58;47.96;101301.34;4164222;28;20068;-62
2022/08/06 03:18:02;;;;;;;;;;;;;;;19.49;48.87;101297.03;4161616;28;20491;-62
2022/08/06 03:20:09;;;;;;;2.90;1.50;;;;;;;19.57;48.56;101306.63;4163439;28;20392;-62
2022/08/06 03:22:20;;;;;;;7.80;2.33;;;;;;;19.65;48.49;101307.41;4155614;28;20052;-62
2022/08/06 03:24:45;;;;;;;3.53;1.80;;;;;;;19.63;48.60;101303.94;4159952;28;20107;-62
2022/08/06 03:26:51;;;;;;;3.60;1.90;;;;;;;19.65;48.12;101310.91;4163327;28;20036;-62
2022/08/06 03:28:59;;;;;;;3.65;1.60;;;;;;;19.53;48.60;101311.91;4162142;28;20470;-62
2022/08/06 03:31:04;;;;;;;5.35;2.05;;;;;;;19.64;48.43;101318.84;4164259;28;20040;-62
2022/08/06 03:33:10;;;;;;;3.85;1.80;;;;;;;19.60;48.16;101317.16;4158251;28;20040;-62
2022/08/06 03:35:34;;;;;;;3.70;1.77;;;;;;;19.53;48.27;101314.53;4146563;28;20049;-62
2022/08/06 03:37:55;;;;;;;5.47;1.95;;;;;;;19.40;48.17;101320.81;4164207;28;20499;-62
2022/08/06 03:40:06;;;;;;;3.35;1.73;;;;;;;19.45;48.30;101319.03;4163014;28;20037;-62
2022/08/06 03:42:09;;;;;;;4.65;1.58;;;;;;;19.48;48.03;101310.22;4164002;28;20041;-62
2022/08/06 03:44:15;;;;;;;4.25;1.45;;;;;;;19.38;47.89;101319.97;4164041;28;20071;-62
2022/08/06 03:46:23;;;;;;;4.10;1.98;;;;;;;19.39;47.78;101324.38;4161873;28;20038;-62
2022/08/06 03:48:32;;;;;;;3.60;1.42;;;;;;;19.35;47.73;101325.28;4161221;28;20049;-62
2022/08/06 03:50:43;;;;;;;3.25;1.27;;;;;;;19.17;47.73;101327.16;4163965;28;20120;-62
2022/08/06 03:52:51;;;;;;;3.00;1.52;;;;;;;19.14;47.72;101329.84;4163903;28;20071;-61
2022/08/06 03:54:58;;;;;;;2.88;1.40;;;;;;;19.10;48.17;101321.94;4162908;28;20065;-63
2022/08/06 03:57:16;;;;;;;2.53;1.30;;;;;;;19.16;47.33;101322.78;4164156;28;20513;-62
2022/08/06 03:59:26;;;;;;;9.73;1.90;;;;;;;19.12;47.64;101328.09;4164144;28;20136;-62
2022/08/06 04:01:52;;;;;;;7.65;1.77;;;;;;;19.14;47.28;101327.19;4163791;28;20029;-62
2022/08/06 04:03:58;;;;;;;4.32;1.85;;;;;;;19.21;46.88;101337.69;4166124;28;20406;-62
2022/08/06 04:06:23;;;;;;;3.00;1.27;;;;;;;19.16;46.75;101333.31;4161914;28;20026;-61
2022/08/06 04:08:31;;;;;;;3.60;1.30;;;;;;;19.10;46.76;101335.09;4165682;28;20124;-62
2022/08/06 04:10:41;;;;;;;4.78;1.48;;;;;;;19.10;46.42;101336.00;4165122;28;20041;-62
2022/08/06 04:12:59;;;;;;;4.32;1.40;;;;;;;18.91;46.58;101339.63;4165829;28;20610;-62
2022/08/06 04:15:22;;;;;;;2.45;1.17;;;;;;;19.09;46.56;101341.28;4158914;28;20507;-62
2022/08/06 04:17:27;;;;;;;3.35;1.50;;;;;;;18.98;46.89;101343.97;4166119;28;20041;-62
2022/08/06 04:19:35;;;;;;;6.13;1.55;;;;;;;18.91;46.93;101343.16;4159770;28;20037;-62
2022/08/06 04:21:45;;;;;;;6.22;1.48;;;;;;;18.95;46.34;101346.63;4163818;28;20514;-61
2022/08/06 04:24:08;;;;;;;6.40;1.13;;;;;;;18.86;46.98;101357.22;4165850;28;20091;-61
2022/08/06 04:26:14;;;;;;;3.63;0.95;;;;;;;18.75;46.99;101355.50;4166387;28;20038;-62
2022/08/06 04:28:20;;;;;;;4.43;1.20;;;;;;;18.84;46.67;101359.84;4164343;28;20091;-62
2022/08/06 04:30:26;;;;;;;3.88;1.60;;;;;;;18.72;47.21;101357.28;4164239;28;20885;-62
2022/08/06 04:32:31;;;;;;;5.13;1.60;;;;;;;18.71;46.79;101359.03;4164430;28;20042;-62
2022/08/06 04:34:37;;;;;;;4.22;1.23;;;;;;;18.65;47.02;101372.25;4159437;28;20045;-62
2022/08/06 04:37:02;;;;;;;3.85;1.40;;;;;;;18.59;47.49;101361.75;4165887;28;20038;-62
2022/08/06 04:39:07;;;;;;;2.22;1.08;;;;;;;18.57;47.40;101361.72;4147726;28;20049;-62
2022/08/06 04:41:17;;;;;;;4.50;1.83;;;;;;;18.66;46.83;101363.44;4164596;28;20037;-62
2022/08/06 04:43:20;;;;;;;4.95;1.30;;;;;;;18.69;46.91;101368.72;4165513;28;20691;-62
2022/08/06 04:45:24;;;;;;;2.85;1.40;;;;;;;18.75;46.89;101370.41;4193941;28;20036;-62
2022/08/06 04:47:49;;;;;;;3.40;1.70;;;;;;;18.66;46.83;101376.59;4196562;28;20434;-62
2022/08/06 04:49:52;;;;;;;4.25;1.48;;;;;;;18.63;47.31;101379.25;4166593;28;20125;-62
2022/08/06 04:52:06;;;;;;;3.55;1.20;;;;;;;18.60;47.25;101374.91;4163922;28;20095;-62
2022/08/06 04:54:29;;;;;;;1.88;1.20;;;;;;;18.62;47.25;101373.13;4159380;28;20037;-62
2022/08/06 04:56:32;;;;;;;1.80;1.17;;;;;;;18.61;47.43;101378.41;4165787;28;20041;-62
2022/08/06 04:58:39;;;;;;;3.03;1.55;;;;;;;18.59;47.40;101374.91;4164831;28;20107;-62
2022/08/06 05:00:44;;;;;;;2.70;1.17;;;;;;;18.63;47.57;101376.63;4164343;28;20053;-62
2022/08/06 05:03:08;;;;;;;3.58;1.40;;;;;;;18.57;47.41;101379.28;4164962;28;20103;-62
2022/08/06 05:05:15;;;;;;;5.55;1.42;;;;;;;18.64;47.53;101386.28;4165420;28;20045;-62
2022/08/06 05:07:27;;;;;;;5.55;1.02;;;;;;;18.59;46.93;101382.81;4158485;28;20046;-62
2022/08/06 05:09:41;;;;;;;1.80;0.93;;;;;;;18.47;47.28;101387.25;4166239;28;20514;-62
2022/08/06 05:12:02;;;;;;;5.72;1.30;;;;;;;18.48;47.60;101388.97;4164407;28;20514;-62
2022/08/06 05:14:12;;;;;;;8.15;1.20;;;;;;;18.46;47.60;101390.75;4163885;28;20041;-62
2022/08/06 05:16:16;;;;;;;4.50;1.30;;;;;;;18.39;47.87;101390.78;4165200;28;20748;-62
2022/08/06 05:18:26;;;;;;;5.15;1.60;;;;;;;18.46;47.20;101398.66;4157041;28;20382;-61
2022/08/06 05:20:52;;;;;;;4.85;1.40;;;;;;;18.39;47.94;101401.31;4161632;28;20045;-62
2022/08/06 05:23:00;;;;;;;3.42;1.33;;;;;;;18.46;47.44;101397.78;4164845;28;20044;-62
2022/08/06 05:25:06;;;;;;;3.45;1.35;;;;;;;18.30;47.78;101399.59;4164287;28;20050;-62
2022/08/06 05:27:21;;;;;;;5.05;1.65;;;;;;;18.35;47.95;101402.19;4164635;28;20471;-62
2022/08/06 05:29:25;;;;;;;4.45;1.10;;;;;;;18.30;48.22;101403.06;4164309;28;20044;-62
2022/08/06 05:31:35;;;;;;;5.60;1.67;;;;;;;18.34;47.98;101414.50;4159450;28;20411;-62
2022/08/06 05:33:43;;;;;;;11.20;1.65;;;;;;;18.29;48.27;101403.09;4163027;28;20380;-63
2022/08/06 05:35:47;;;;;;;3.67;1.42;;;;;;;18.26;48.40;101408.34;4162577;28;20115;-62
2022/08/06 05:38:04;;;;;;;6.93;1.52;;;;;;;18.35;48.42;101407.47;4164205;28;20497;-64
2022/08/06 05:40:12;;;;;;;3.80;1.20;;;;;;;18.36;48.24;101420.63;4163057;28;20108;-64
2022/08/06 05:42:22;;;;;;;3.25;1.10;;;;;;;18.41;47.82;101413.59;4163452;28;20044;-64
2022/08/06 05:44:28;;;;;;;2.22;1.40;;;;;;;18.42;48.02;101417.97;4176880;28;20132;-60
2022/08/06 05:46:35;;;;;;;3.10;1.30;;;;;;;18.51;48.06;101408.28;4164061;28;20124;-61
2022/08/06 05:48:46;;;;;;;7.32;1.30;;;;;;;18.34;48.48;101417.13;4163313;28;20583;-61
2022/08/06 05:50:58;;;;;;;2.03;1.30;;;;;;;18.52;48.30;101418.81;4165528;28;20132;-61
2022/08/06 05:53:07;;;;;;;3.92;1.25;;;;;;;18.56;48.37;101425.84;4165493;28;20038;-61
2022/08/06 05:55:16;;;;;;;3.42;1.40;;;;;;;18.53;48.05;101425.84;4164835;28;20040;-61
2022/08/06 05:57:22;;;;;;;2.65;1.50;;;;;;;18.52;48.41;101423.22;4165881;28;20041;-61
2022/08/06 05:59:49;;;;;;;2.03;1.30;;;;;;;18.61;48.17;101423.19;4176134;28;20037;-61
2022/08/06 06:02:02;;;;;;;3.97;1.30;;;;;;;18.71;47.89;101431.94;4163235;28;20396;-61
2022/08/06 06:04:07;;;;;;;3.28;1.40;;;;;;;18.64;48.62;101428.44;4164383;28;20045;-61
2022/08/06 06:06:12;;;;;;;3.58;2.03;;;;;;;18.74;48.67;101438.03;4163728;28;20037;-61
2022/08/06 06:08:23;;;;;;;3.22;1.33;;;;;;;18.77;48.24;101438.03;4161320;28;20052;-62
2022/08/06 06:10:44;;;;;;;2.22;1.27;;;;;;;18.88;48.19;101434.50;4163867;28;20037;-62
2022/08/06 06:12:55;;;;;;;3.83;1.25;;;;;;;18.85;48.67;101438.00;4163668;28;20111;-63
2022/08/06 06:14:59;;;;;;;5.32;1.83;;;;;;;18.92;48.05;101444.16;4169954;28;20041;-62
2022/08/06 06:17:16;;;;;;;2.30;1.40;;;;;;;18.94;48.24;101445.91;4166966;28;20069;-63
2022/08/06 06:19:33;;;;;;;5.30;1.70;;;;;;;18.87;48.46;101438.91;4163483;28;20148;-63
2022/08/06 06:21:49;;;;;;;3.25;1.48;;;;;;;18.94;48.44;101447.66;4164718;28;20037;-62
2022/08/06 06:24:13;;;;;;;6.68;2.00;;;;;;;18.95;48.67;101446.78;4164005;28;20037;-63
2022/08/06 06:26:21;;;;;;;;;;;;;;;18.99;48.89;101451.16;4157828;28;20041;-64
2022/08/06 06:28:44;;;;;;;3.83;1.50;;;;;;;19.05;48.65;101448.47;4154557;28;20028;-64
2022/08/06 06:30:55;;;;;;;3.58;1.80;;;;;;;19.18;48.38;101452.78;4159991;28;20091;-63
2022/08/06 06:33:15;;;;;;;9.60;2.22;;;;;;;19.19;48.67;101445.78;4161825;28;20548;-64
2022/08/06 06:35:49;;;;;;;4.00;1.40;;;;;;;19.33;47.63;101449.22;4150842;28;20058;-62
2022/08/06 06:38:08;;;;;;;4.50;1.80;;;;;;;19.40;47.58;101455.31;4162344;28;20473;-62
2022/08/06 06:40:26;;;;;;;2.20;1.30;;;;;;;19.35;48.03;101457.13;4163781;28;20068;-63
2022/08/06 06:42:47;;;;;;;3.85;1.50;;;;;;;19.45;47.45;101448.25;4158499;28;20458;-63
2022/08/06 06:44:57;;;;;;;3.28;1.30;;;;;;;19.44;48.01;101451.78;4163602;28;20526;-62
2022/08/06 06:47:29;;;;;;;3.13;1.58;;;;;;;19.56;47.15;101448.16;4162592;28;20533;-64
2022/08/06 06:49:43;;;;;;;2.15;1.30;;;;;;;19.48;47.80;101448.22;4162441;28;20475;-66
2022/08/06 06:52:11;;;;;;;3.08;1.75;;;;;;;19.59;47.64;101455.19;4163174;28;20041;-66
2022/08/06 06:54:21;;;;;;;5.25;1.60;;;;;;;19.70;47.65;101451.59;4163926;28;20463;-66
2022/08/06 06:56:45;;;;;;;3.85;1.65;;;;;;;19.85;46.52;101449.75;4159428;28;20068;-64
2022/08/06 06:58:51;;;;;;;2.05;1.30;;;;;;;19.79;47.18;101458.59;4163703;28;20041;-65
2022/08/06 07:00:56;;;;;;;3.80;1.35;;;;;;;19.93;46.57;101449.66;4162877;28;20142;-67
2022/08/06 07:03:20;;;;;;;5.35;1.35;;;;;;;19.92;46.87;101442.63;4146046;28;20565;-62
2022/08/06 07:05:47;;;;;;;4.85;1.40;;;;;;;19.87;47.00;101455.88;4159682;28;20068;-61
2022/08/06 07:08:14;;;;;;;4.70;1.55;;;;;;;19.90;46.99;101454.97;4158909;28;20037;-62
2022/08/06 07:10:32;;;;;;;7.05;1.83;;;;;;;19.92;47.10;101459.34;4161447;28;20041;-70
2022/08/06 07:12:38;;;;;;;6.03;2.05;;;;;;;20.05;46.56;101460.13;4158864;28;20041;-62
2022/08/06 07:14:42;;;;;;;5.50;1.60;;;;;;;20.25;46.10;101459.06;4162519;28;20140;-63
2022/08/06 07:16:48;;;;;;;4.90;1.55;;;;;;;20.30;46.16;101459.91;4162273;28;20080;-61
2022/08/06 07:18:55;;;;;;;3.88;1.23;;;;;;;20.33;46.18;101460.72;4163767;28;20029;-62
2022/08/06 07:21:00;;;;;;;3.28;1.65;;;;;;;20.41;45.45;101460.63;4160456;28;20048;-68
2022/08/06 07:23:07;;;;;;;5.78;1.40;;;;;;;20.42;45.26;101459.75;4163016;28;20048;-64
2022/08/06 07:25:34;;;;;;;2.70;1.15;;;;;;;20.48;45.03;101459.69;4157989;28;20453;-62
2022/08/06 07:27:49;;;;;;;3.92;1.75;;;;;;;20.53;44.74;101464.91;4162167;28;20084;-65
2022/08/06 07:29:59;;;;;;;7.90;1.30;;;;;;;20.56;44.58;101455.19;4162077;28;20489;-64
2022/08/06 07:32:03;;;;;;;3.13;1.00;;;;;;;20.55;44.95;101460.50;4158371;28;20508;-63
2022/08/06 07:34:08;;;;;;;4.90;1.45;;;;;;;20.65;44.64;101461.28;4162570;28;20401;-64
2022/08/06 07:36:16;;;;;;;3.28;1.30;;;;;;;20.67;44.55;101452.44;4150644;28;20082;-63
2022/08/06 07:38:22;;;;;;;2.00;1.25;;;;;;;20.75;44.72;101457.66;4163467;28;20680;-63
2022/08/06 07:40:28;;;;;;;4.07;1.30;;;;;;;20.82;44.04;101453.16;4159927;28;20116;-64
2022/08/06 07:42:35;;;;;;;3.53;1.40;;;;;;;21.06;43.20;101455.50;4165445;28;20033;-65
2022/08/06 07:44:42;;;;;;;4.68;1.25;;;;;;;21.01;43.45;101464.38;4158917;28;20049;-63
2022/08/06 07:47:01;;;;;;;2.85;1.63;;;;;;;20.92;43.56;101460.97;4178767;28;20506;-63
2022/08/06 07:49:30;;;;;;;2.78;1.00;;;;;;;21.08;41.88;101450.19;4161685;28;20041;-67
2022/08/06 07:51:56;;;;;;;4.22;1.40;;;;;;;20.99;41.87;101471.47;4161100;28;20045;-65
2022/08/06 07:54:00;;;;;;;3.60;1.13;;;;;;;21.00;40.91;101452.06;4144671;28;20042;-69
2022/08/06 07:56:10;;;;;;;1.73;0.95;;;;;;;21.08;40.75;101452.81;4163859;28;20041;-68
2022/08/06 07:58:15;;;;;;;4.82;1.25;;;;;;;21.20;40.53;101455.31;4163538;28;20493;-67
2022/08/06 08:00:19;;;;;;;2.38;0.98;;;;;;;21.19;38.85;101458.84;4162117;28;20042;-64
2022/08/06 08:02:24;;;;;;;4.97;1.00;;;;;;;21.20;38.58;101455.31;4157311;28;20037;-67
2022/08/06 08:06:59;;;;;;;3.72;1.38;;;;;;;21.38;36.83;101454.16;4162595;28;20048;-65
2022/08/06 08:09:03;;;;;;;2.22;0.80;;;;;;;;;;4162696;28;20128;-64
2022/08/06 08:11:08;;;;;;;4.57;1.10;;;;;;;21.50;36.34;101463.69;4161911;28;20038;-63
2022/08/06 08:13:12;;;;;;;1.85;0.60;;;;;;;;;;4160879;28;20126;-64
2022/08/06 08:15:19;;;;;;;5.00;1.00;;;;;;;21.48;36.90;101462.84;4160203;28;20136;-63
2022/08/06 08:17:25;;;;;;;4.00;0.90;;;;;;;21.56;36.40;101453.03;4156959;28;20080;-64
2022/08/06 08:19:37;;;;;;;2.95;1.10;;;;;;;21.66;36.08;101468.78;4161883;28;20045;-64
2022/08/06 08:21:41;;;;;;;4.22;1.15;;;;;;;21.68;35.93;101465.19;4161440;28;20053;-64
2022/08/06 08:23:48;;;;;;;3.20;0.95;;;;;;;21.74;35.70;101464.22;4163603;28;20038;-63
2022/08/06 08:25:59;;;;;;;4.15;1.10;;;;;;;21.71;35.57;101472.22;4145488;28;20081;-64
2022/08/06 08:28:02;;;;;;;1.13;0.73;;;;;;;21.82;35.79;101458.84;4163660;28;20410;-64
2022/08/06 08:30:13;;;;;;;14.82;1.20;;;;;;;21.77;35.24;101467.72;4163783;28;20091;-64
2022/08/06 08:32:18;;;;;;;1.63;0.80;;;;;;;21.77;35.37;101462.44;4162225;28;20046;-64
2022/08/06 08:34:21;;;;;;;1.92;0.70;;;;;;;21.69;36.12;101463.44;4163708;28;20037;-64
2022/08/06 08:36:29;;;;;;;1.90;0.80;;;;;;;21.83;33.83;101461.44;4161584;28;20125;-64
2022/08/06 08:38:34;;;;;;;3.42;0.82;;;;;;;21.90;34.51;101456.91;4163632;28;20052;-63
2022/08/06 08:40:37;;;;;;;4.65;0.77;;;;;;;21.96;34.49;101449.75;4163792;28;20042;-64
2022/08/06 08:42:47;;;;;;;4.45;0.75;;;;;;;22.02;34.15;101461.13;4162195;28;20045;-64
2022/08/06 08:44:50;;;;;;;4.78;1.10;;;;;;;21.99;34.40;101461.19;4163728;28;20048;-63
2022/08/06 08:46:58;;;;;;;2.90;0.93;;;;;;;21.90;34.73;101452.50;4161751;28;20065;-64
2022/08/06 08:49:07;;;;;;;2.38;1.00;;;;;;;22.00;34.07;101460.28;4165627;28;20399;-64
2022/08/06 08:51:19;;;;;;;2.47;1.00;;;;;;;22.06;33.58;101446.94;4132544;28;20283;-64
2022/08/06 08:53:43;;;;;;;2.30;0.77;;;;;;;22.05;33.76;101459.31;4149721;28;20053;-64
2022/08/06 08:55:48;;;;;;;2.55;0.90;;;;;;;21.99;34.10;101453.22;4154130;28;20045;-64
2022/08/06 08:58:12;;;;;;;3.05;1.10;;;;;;;22.26;32.82;101455.38;4181851;28;20059;-65
2022/08/06 09:00:36;;;;;;;2.78;1.08;;;;;;;22.24;33.13;101451.91;4148972;28;20038;-64
2022/08/06 09:02:42;;;;;;;2.65;0.70;;;;;;;22.27;32.97;101453.63;4166203;28;20079;-64
2022/08/06 09:04:55;;;;;;;2.05;0.73;;;;;;;22.38;32.90;101458.75;4165720;28;20044;-64
2022/08/06 09:07:02;;;;;;;2.70;0.73;;;;;;;22.42;32.87;101461.31;4165131;28;20038;-64
2022/08/06 09:09:07;;;;;;;4.80;0.82;;;;;;;22.46;33.14;101464.78;4165132;28;20426;-63
2022/08/06 09:11:18;;;;;;;1.17;0.75;;;;;;;22.45;32.49;101463.88;4166514;28;20045;-64
2022/08/06 09:13:41;;;;;;;2.28;0.82;;;;;;;22.61;31.24;101461.81;4165345;28;20037;-63
2022/08/06 09:15:54;;;;;;;1.58;0.68;;;;;;;22.43;32.00;101456.91;4166319;28;20099;-63
2022/08/06 09:17:57;;;;;;;2.93;1.07;;;;;;;22.54;32.19;101460.19;4166367;28;20048;-64
2022/08/06 09:20:24;;;;;;;3.72;1.00;;;;;;;22.72;31.54;101458.06;4166235;28;20068;-64
2022/08/06 09:22:28;;;;;;;1.42;0.88;;;;;;;22.62;31.76;101455.63;4165184;28;20120;-64
2022/08/06 09:24:31;;;;;;;2.25;0.70;;;;;;;22.69;31.95;101458.13;4166104;28;20079;-64
2022/08/06 09:26:39;;;;;;;3.22;0.98;;;;;;;22.81;31.88;101463.19;4164970;28;20577;-63
2022/08/06 09:28:56;;;;;;;0.90;0.70;;;;;;;22.83;30.91;101453.44;4166213;28;20038;-64
2022/08/06 09:31:02;;;;;;;3.83;0.93;;;;;;;22.86;30.98;101458.66;4166161;28;20072;-64
2022/08/06 09:33:11;;;;;;;0.63;0.50;;;;;;;22.91;30.17;101462.09;4163158;28;20033;-63
2022/08/06 09:35:35;;;;;;;3.10;0.98;;;;;;;22.85;30.25;101448.94;4160304;28;20034;-64
2022/08/06 09:37:47;;;;;;;2.13;0.63;;;;;;;22.86;29.79;101455.16;4164730;28;20049;-64
2022/08/06 09:39:57;;;;;;;2.65;1.00;;;;;;;22.83;29.72;101456.06;4197808;28;20032;-64
2022/08/06 09:42:15;;;;;;;2.25;0.60;;;;;;;22.92;29.77;101457.66;4164910;28;20041;-63
2022/08/06 09:44:28;;;;;;;2.38;0.75;;;;;;;22.96;28.96;101457.56;4159244;28;20382;-65
2022/08/06 09:46:42;;;;;;;3.80;0.88;;;;;;;22.97;29.03;101461.09;4163401;28;20068;-64
2022/08/06 09:48:58;;;;;;;2.92;0.77;;;;;;;23.23;29.62;101460.56;4164443;28;20045;-63
2022/08/06 09:51:23;;;;;;;3.30;0.93;;;;;;;23.07;30.32;101460.00;4165691;28;20041;-64
2022/08/06 09:53:52;;;;;;;4.55;0.90;;;;;;;23.15;30.13;101454.53;4163333;28;20049;-63
2022/08/06 09:56:17;;;;;;;1.83;0.75;;;;;;;23.16;30.71;101449.22;4165637;28;20052;-64
2022/08/06 09:58:35;;;;;;;2.28;1.10;;;;;;;23.40;29.58;101451.34;4165628;28;20535;-64
2022/08/06 10:00:40;;;;;;;3.22;0.80;;;;;;;23.37;29.11;101454.91;4164848;28;20037;-64
2022/08/06 10:02:47;;;;;;;1.90;0.85;;;;;;;23.37;29.00;101451.41;4163174;28;20045;-64
2022/08/06 10:04:53;;;;;;;2.85;0.80;;;;;;;23.38;29.52;101455.78;4165387;28;20124;-63
2022/08/06 10:06:59;;;;;;;2.10;0.90;;;;;;;23.42;29.82;101452.16;4165447;28;20041;-63
2022/08/06 10:09:08;;;;;;;1.27;0.63;;;;;;;23.47;29.37;101448.50;4165516;28;20045;-64
2022/08/06 10:11:35;;;;;;;3.20;1.00;;;;;;;23.50;29.50;101442.25;4165418;28;20045;-64
2022/08/06 10:13:51;;;;;;;1.50;0.60;;;;;;;23.51;29.22;101441.34;4164261;28;20045;-63
2022/08/06 10:15:58;;;;;;;0.60;0.60;;;;;;;23.66;28.65;101446.25;4164112;28;20046;-64
2022/08/06 10:18:03;;;;;;;1.38;0.63;;;;;;;23.63;28.45;101446.34;4164066;28;20045;-64